Time;durP1;ratioP1;P1;durP2;ratioP2;P2;SDS_P1;SDS_P2;PMS_P1;PMS_P2;Temp;Humidity;BMP_temperature;BMP_pressure;BME280_temperature;BME280_humidity;BME280_pressure;Samples;Min_cycle;Max_cycle;Signal;HPM_P1;HPM_P2
2021/05/04 00:01:34;;;;;;;2.75;1.50;;;12.70;55.90;;;;;;5087137;28;20414;-84
2021/05/04 00:04:02;;;;;;;2.00;0.88;;;12.70;56.20;;;;;;5072210;28;20040;-84
2021/05/04 00:06:29;;;;;;;2.70;1.05;;;12.70;56.10;;;;;;5104937;28;20035;-84
2021/05/04 00:08:56;;;;;;;4.75;1.60;;;12.70;56.30;;;;;;5082716;28;20582;-84
2021/05/04 00:11:23;;;;;;;5.05;1.30;;;12.80;56.50;;;;;;5071054;28;20043;-85
2021/05/04 00:13:50;;;;;;;3.72;1.10;;;12.70;57.00;;;;;;5088873;28;20969;-84
2021/05/04 00:16:17;;;;;;;2.92;0.93;;;12.70;57.00;;;;;;5105148;28;20055;-84
2021/05/04 00:18:43;;;;;;;5.40;0.90;;;12.80;57.10;;;;;;5069496;28;20039;-84
2021/05/04 00:21:10;;;;;;;6.43;1.10;;;12.70;57.50;;;;;;5071500;28;20052;-83
2021/05/04 00:23:36;;;;;;;5.43;1.00;;;12.80;57.90;;;;;;5105878;28;20042;-83
2021/05/04 00:26:08;;;;;;;5.90;0.80;;;12.70;58.60;;;;;;5088124;28;20062;-85
2021/05/04 00:28:36;;;;;;;6.03;1.20;;;12.70;58.60;;;;;;5073171;28;20040;-85
2021/05/04 00:31:03;;;;;;;2.55;0.80;;;12.70;59.60;;;;;;5088161;28;20039;-85
2021/05/04 00:33:30;;;;;;;4.68;1.27;;;12.70;59.60;;;;;;5039501;28;20482;-84
2021/05/04 00:35:57;;;;;;;5.03;0.52;;;12.70;59.90;;;;;;5088976;28;20066;-84
2021/05/04 00:38:24;;;;;;;6.03;0.82;;;12.60;60.00;;;;;;5070814;28;20048;-84
2021/05/04 00:40:51;;;;;;;2.90;0.70;;;12.60;60.30;;;;;;5078564;28;20051;-85
2021/05/04 00:43:17;;;;;;;3.38;0.70;;;12.60;60.40;;;;;;5071274;28;20039;-85
2021/05/04 00:45:44;;;;;;;11.63;1.33;;;12.60;60.60;;;;;;5088295;28;20035;-85
2021/05/04 00:48:11;;;;;;;2.30;0.65;;;12.60;61.70;;;;;;5069680;28;20056;-85
2021/05/04 00:50:37;;;;;;;3.70;1.00;;;12.50;63.10;;;;;;5071091;28;20039;-87
2021/05/04 00:53:04;;;;;;;4.97;1.00;;;12.40;65.00;;;;;;5057491;28;20056;-86
2021/05/04 00:55:33;;;;;;;4.22;1.10;;;12.20;66.70;;;;;;5065648;28;20047;-86
2021/05/04 00:58:01;;;;;;;6.57;1.33;;;11.90;69.60;;;;;;5107855;28;20035;-81
2021/05/04 01:00:28;;;;;;;4.00;0.75;;;11.70;72.20;;;;;;5071245;28;20071;-86
2021/05/04 01:02:58;;;;;;;5.68;1.30;;;11.50;73.10;;;;;;5058277;28;20047;-84
2021/05/04 01:05:25;;;;;;;8.45;1.35;;;11.30;75.10;;;;;;5075985;28;20040;-84
2021/05/04 01:07:52;;;;;;;5.03;1.23;;;11.10;77.40;;;;;;5110094;28;20584;-82
2021/05/04 01:10:19;;;;;;;5.00;1.48;;;10.90;79.40;;;;;;5087918;28;20051;-82
2021/05/04 01:12:46;;;;;;;5.47;1.20;;;10.80;82.00;;;;;;5108470;28;20379;-80
2021/05/04 01:15:13;;;;;;;5.90;1.15;;;10.70;83.90;;;;;;5091077;28;20059;-81
2021/05/04 01:17:39;;;;;;;2.50;0.80;;;10.50;84.70;;;;;;5074753;28;20050;-80
2021/05/04 01:20:08;;;;;;;5.85;1.23;;;10.50;87.10;;;;;;5072929;28;20059;-80
2021/05/04 01:22:35;;;;;;;6.95;1.50;;;10.30;89.00;;;;;;5107838;28;20051;-80
2021/05/04 01:25:15;;;;;;;5.40;1.25;;;10.20;90.30;;;;;;5077996;28;20040;-81
2021/05/04 01:27:43;;;;;;;6.57;1.00;;;10.00;91.20;;;;;;5090328;28;20571;-80
2021/05/04 01:30:10;;;;;;;7.75;1.20;;;9.90;91.50;;;;;;5054063;28;20051;-80
2021/05/04 01:32:37;;;;;;;5.80;1.05;;;9.80;92.10;;;;;;5074748;28;20035;-81
2021/05/04 01:35:08;;;;;;;3.42;0.80;;;9.80;92.50;;;;;;5089003;28;20508;-81
2021/05/04 01:37:37;;;;;;;6.03;1.10;;;9.70;92.60;;;;;;5072428;28;20035;-82
2021/05/04 01:40:06;;;;;;;5.85;1.75;;;9.60;93.20;;;;;;5086934;28;20040;-81
2021/05/04 01:42:33;;;;;;;3.92;1.20;;;9.60;93.70;;;;;;5089539;28;20036;-81
2021/05/04 01:45:00;;;;;;;6.95;1.55;;;9.60;94.00;;;;;;5090656;28;20053;-81
2021/05/04 01:47:26;;;;;;;3.08;1.30;;;9.50;94.50;;;;;;5088854;28;20044;-80
2021/05/04 01:49:53;;;;;;;8.60;1.40;;;9.50;94.50;;;;;;5055171;28;20040;-81
2021/05/04 01:52:20;;;;;;;4.78;1.48;;;9.50;94.60;;;;;;5090065;28;20482;-81
2021/05/04 01:54:49;;;;;;;2.78;1.40;;;9.50;94.70;;;;;;5055820;28;20036;-80
2021/05/04 01:57:15;;;;;;;6.13;2.22;;;9.40;94.90;;;;;;5056427;28;20055;-81
2021/05/04 01:59:42;;;;;;;4.93;1.70;;;9.50;95.20;;;;;;5053255;28;20059;-81
2021/05/04 02:02:08;;;;;;;5.63;1.40;;;9.50;95.20;;;;;;5091211;28;20815;-81
2021/05/04 02:04:35;;;;;;;4.55;1.60;;;9.40;95.50;;;;;;5086534;28;20044;-81
2021/05/04 02:07:03;;;;;;;4.57;2.22;;;9.40;95.70;;;;;;5074612;28;20042;-81
2021/05/04 02:09:31;;;;;;;3.85;1.58;;;9.40;95.90;;;;;;5056448;28;20470;-81
2021/05/04 02:11:58;;;;;;;4.93;2.10;;;9.40;96.20;;;;;;5074487;28;20035;-81
2021/05/04 02:14:24;;;;;;;3.38;1.77;;;9.40;96.50;;;;;;5072021;28;20046;-81
2021/05/04 02:16:51;;;;;;;4.15;1.58;;;9.40;96.80;;;;;;5072833;28;20951;-81
2021/05/04 02:19:18;;;;;;;3.20;1.58;;;9.40;96.90;;;;;;5104890;28;20055;-81
2021/05/04 02:21:44;;;;;;;6.47;2.22;;;9.40;97.10;;;;;;5070737;28;20382;-81
2021/05/04 02:24:11;;;;;;;7.45;2.25;;;9.40;97.50;;;;;;5055996;28;20058;-81
2021/05/04 02:26:47;;;;;;;3.22;1.77;;;9.30;97.30;;;;;;5089883;28;20058;-81
2021/05/04 02:29:13;;;;;;;3.47;2.08;;;9.30;97.40;;;;;;5071041;28;20393;-81
2021/05/04 02:31:40;;;;;;;5.45;2.47;;;9.30;97.70;;;;;;5074361;28;20382;-81
2021/05/04 02:34:06;;;;;;;4.35;1.80;;;9.30;97.50;;;;;;5088072;28;20062;-81
2021/05/04 02:36:33;;;;;;;3.10;1.92;;;9.30;97.40;;;;;;5059620;28;20051;-81
2021/05/04 02:39:00;;;;;;;6.10;2.03;;;9.30;97.40;;;;;;5103171;28;20047;-81
2021/05/04 02:41:26;;;;;;;3.80;1.80;;;9.30;97.50;;;;;;5087416;28;20052;-83
2021/05/04 02:43:53;;;;;;;6.07;2.53;;;9.30;97.50;;;;;;5055078;28;20502;-81
2021/05/04 02:46:19;;;;;;;3.47;2.17;;;9.30;97.60;;;;;;5071412;28;20039;-80
2021/05/04 02:48:46;;;;;;;3.47;2.10;;;9.30;97.60;;;;;;5052021;28;20032;-81
2021/05/04 02:51:13;;;;;;;3.65;1.73;;;9.30;97.60;;;;;;5086128;28;20052;-80
2021/05/04 02:53:39;;;;;;;4.97;1.80;;;9.30;97.60;;;;;;5090783;28;20038;-81
2021/05/04 02:56:07;;;;;;;2.67;1.77;;;9.30;97.70;;;;;;5088153;28;20058;-81
2021/05/04 02:58:34;;;;;;;5.57;2.25;;;9.30;97.80;;;;;;5087212;28;20048;-81
2021/05/04 03:01:01;;;;;;;4.78;2.90;;;9.30;97.80;;;;;;5091049;28;20035;-80
2021/05/04 03:03:27;;;;;;;5.22;2.30;;;9.30;98.00;;;;;;5071053;28;20039;-81
2021/05/04 03:05:54;;;;;;;4.15;1.77;;;9.30;98.10;;;;;;5105306;28;20046;-81
2021/05/04 03:08:21;;;;;;;2.30;2.10;;;9.30;98.30;;;;;;5069216;28;20044;-80
2021/05/04 03:10:48;;;;;;;3.45;2.20;;;9.30;98.40;;;;;;5068571;28;20031;-80
2021/05/04 03:13:14;;;;;;;4.55;2.10;;;9.30;98.60;;;;;;5070113;28;20040;-80
2021/05/04 03:15:41;;;;;;;2.45;2.05;;;9.20;98.70;;;;;;5069369;28;20048;-80
2021/05/04 03:18:07;;;;;;;4.03;2.28;;;9.20;98.80;;;;;;5055350;28;20043;-80
2021/05/04 03:20:34;;;;;;;5.28;2.38;;;9.20;98.90;;;;;;5037921;28;20040;-81
2021/05/04 03:23:01;;;;;;;2.60;1.90;;;9.20;98.90;;;;;;5088508;28;20054;-81
2021/05/04 03:25:28;;;;;;;4.82;2.05;;;9.10;99.00;;;;;;5069032;28;20035;-80
2021/05/04 03:27:57;;;;;;;4.18;1.92;;;9.10;99.00;;;;;;5072389;28;20042;-81
2021/05/04 03:30:26;;;;;;;3.05;1.98;;;9.20;99.10;;;;;;5071663;28;20043;-80
2021/05/04 03:32:53;;;;;;;4.10;1.77;;;9.20;99.10;;;;;;5084509;28;20481;-81
2021/05/04 03:35:20;;;;;;;2.72;1.80;;;9.20;99.10;;;;;;5071840;28;20046;-80
2021/05/04 03:37:47;;;;;;;4.13;1.80;;;9.20;99.00;;;;;;5088278;28;20402;-80
2021/05/04 03:40:15;;;;;;;3.22;1.20;;;9.20;98.80;;;;;;5071062;28;20161;-80
2021/05/04 03:42:42;;;;;;;5.07;1.35;;;9.30;98.80;;;;;;5070555;28;20036;-80
2021/05/04 03:45:11;;;;;;;3.67;1.40;;;9.30;98.70;;;;;;5107726;28;20047;-80
2021/05/04 03:47:43;;;;;;;3.72;2.00;;;9.30;98.60;;;;;;5072479;28;20031;-81
2021/05/04 03:50:13;;;;;;;3.47;1.73;;;9.30;98.50;;;;;;5105097;28;20040;-81
2021/05/04 03:52:40;;;;;;;3.33;1.83;;;9.30;98.50;;;;;;5072360;28;20040;-81
2021/05/04 03:55:08;;;;;;;4.68;2.20;;;9.30;98.50;;;;;;5088119;28;20058;-80
2021/05/04 03:57:35;;;;;;;3.03;2.03;;;9.20;98.70;;;;;;5045660;28;20099;-80
2021/05/04 04:00:07;;;;;;;3.15;1.85;;;9.20;99.00;;;;;;5086773;28;20035;-79
2021/05/04 04:02:34;;;;;;;4.95;2.50;;;9.20;99.20;;;;;;5072896;28;20054;-80
2021/05/04 04:05:02;;;;;;;5.20;1.92;;;9.10;99.40;;;;;;5089341;28;20054;-80
2021/05/04 04:07:29;;;;;;;3.03;1.75;;;9.10;99.50;;;;;;5070986;28;20042;-80
2021/05/04 04:09:55;;;;;;;3.13;2.25;;;9.10;99.60;;;;;;5086814;28;20051;-80
2021/05/04 04:12:23;;;;;;;3.15;1.58;;;9.10;99.70;;;;;;5054198;28;20047;-80
2021/05/04 04:14:53;;;;;;;2.70;2.28;;;9.10;99.80;;;;;;5088388;28;20059;-80
2021/05/04 04:17:21;;;;;;;2.22;1.33;;;9.10;99.90;;;;;;5070326;28;20054;-80
2021/05/04 04:19:48;;;;;;;5.50;2.92;;;9.10;99.90;;;;;;5100903;28;20502;-80
2021/05/04 04:22:15;;;;;;;3.95;2.28;;;9.00;99.90;;;;;;5072747;28;20044;-81
2021/05/04 04:24:41;;;;;;;3.83;2.50;;;9.00;99.90;;;;;;5070822;28;20050;-79
2021/05/04 04:27:08;;;;;;;4.35;2.17;;;9.00;99.90;;;;;;5038533;28;20048;-80
2021/05/04 04:29:35;;;;;;;6.88;2.47;;;9.00;99.90;;;;;;5068771;28;20039;-80
2021/05/04 04:32:01;;;;;;;5.53;2.08;;;9.10;99.90;;;;;;5070172;28;20482;-81
2021/05/04 04:34:28;;;;;;;3.20;2.17;;;9.10;99.90;;;;;;5071270;28;20093;-80
2021/05/04 04:36:55;;;;;;;3.83;2.22;;;9.10;99.90;;;;;;5071120;28;20052;-83
2021/05/04 04:39:22;;;;;;;5.97;2.25;;;9.10;99.90;;;;;;5082186;28;20035;-82
2021/05/04 04:41:49;;;;;;;5.35;2.78;;;9.10;99.90;;;;;;5102850;28;20055;-83
2021/05/04 04:44:16;;;;;;;4.53;2.65;;;9.00;99.90;;;;;;5070931;28;20036;-81
2021/05/04 04:46:44;;;;;;;5.57;3.60;;;9.00;99.90;;;;;;5071291;28;20056;-83
2021/05/04 04:49:15;;;;;;;7.93;4.03;;;9.00;99.90;;;;;;5067108;28;20715;-79
2021/05/04 04:51:43;;;;;;;;;;;8.90;99.90;;;;;;5072182;28;20059;-82
2021/05/04 04:54:10;;;;;;;4.40;3.08;;;8.90;99.90;;;;;;5071301;28;19916;-81
2021/05/04 04:56:37;;;;;;;3.90;2.25;;;8.90;99.90;;;;;;5104645;28;20922;-82
2021/05/04 04:59:05;;;;;;;4.93;2.53;;;8.90;99.90;;;;;;5077108;28;20135;-81
2021/05/04 05:01:33;;;;;;;4.90;3.15;;;8.90;99.90;;;;;;5088407;28;20039;-81
2021/05/04 05:04:01;;;;;;;5.75;2.45;;;8.90;99.90;;;;;;5085359;28;20043;-81
2021/05/04 05:06:28;;;;;;;5.55;3.50;;;8.90;99.90;;;;;;5071755;28;20047;-80
2021/05/04 05:08:54;;;;;;;3.63;2.38;;;8.90;99.90;;;;;;5070120;28;20390;-81
2021/05/04 05:11:21;;;;;;;4.78;2.20;;;9.00;99.90;;;;;;5037069;28;20038;-81
2021/05/04 05:13:47;;;;;;;3.08;2.42;;;9.00;99.90;;;;;;5054327;28;20508;-80
2021/05/04 05:16:17;;;;;;;2.97;2.20;;;9.00;99.90;;;;;;5069208;28;20402;-81
2021/05/04 05:18:44;;;;;;;2.42;2.17;;;9.00;99.90;;;;;;5084803;28;20050;-81
2021/05/04 05:21:13;;;;;;;3.80;2.08;;;9.00;99.90;;;;;;5102652;28;20027;-80
2021/05/04 05:23:40;;;;;;;3.22;2.13;;;9.00;99.90;;;;;;5082152;28;20569;-81
2021/05/04 05:26:07;;;;;;;4.28;2.47;;;9.10;99.90;;;;;;5054450;28;20038;-80
2021/05/04 05:28:33;;;;;;;3.75;1.95;;;9.00;99.90;;;;;;5056610;28;20028;-80
2021/05/04 05:31:00;;;;;;;4.40;2.25;;;9.10;99.90;;;;;;5070540;28;20035;-80
2021/05/04 05:33:26;;;;;;;4.28;2.30;;;9.00;99.90;;;;;;5070647;28;20046;-80
2021/05/04 05:35:53;;;;;;;4.90;2.05;;;9.10;99.90;;;;;;5087188;28;20043;-80
2021/05/04 05:38:19;;;;;;;5.88;2.40;;;9.10;99.90;;;;;;5053923;28;20047;-81
2021/05/04 05:40:46;;;;;;;5.43;2.42;;;9.20;99.90;;;;;;5056201;28;20802;-80
2021/05/04 05:43:12;;;;;;;4.50;1.80;;;9.20;99.90;;;;;;5074699;28;20036;-80
2021/05/04 05:45:39;;;;;;;4.25;1.70;;;9.30;99.90;;;;;;5041090;28;20031;-80
2021/05/04 05:48:05;;;;;;;3.85;1.83;;;9.30;99.90;;;;;;5056889;28;20036;-80
2021/05/04 05:50:32;;;;;;;7.10;1.90;;;9.40;99.90;;;;;;5073933;28;20682;-80
2021/05/04 05:52:59;;;;;;;5.10;1.42;;;9.40;99.90;;;;;;5090234;28;20059;-80
2021/05/04 05:55:26;;;;;;;6.40;2.00;;;9.40;99.90;;;;;;5057547;28;20047;-80
2021/05/04 05:57:52;;;;;;;7.70;1.50;;;9.50;99.90;;;;;;5040107;28;20052;-80
2021/05/04 06:00:20;;;;;;;2.97;1.17;;;9.50;99.90;;;;;;5106805;28;20390;-80
2021/05/04 06:02:46;;;;;;;3.80;1.10;;;9.50;99.90;;;;;;5080934;28;20058;-80
2021/05/04 06:05:13;;;;;;;4.15;1.00;;;9.60;99.90;;;;;;5073884;28;20035;-81
2021/05/04 06:07:40;;;;;;;4.68;1.40;;;9.60;99.90;;;;;;5088726;28;20039;-80
2021/05/04 06:10:08;;;;;;;6.43;1.13;;;9.70;99.90;;;;;;5071345;28;20047;-80
2021/05/04 06:12:35;;;;;;;5.55;0.82;;;9.80;99.70;;;;;;5065054;28;20048;-80
2021/05/04 06:15:02;;;;;;;4.78;0.80;;;9.80;99.60;;;;;;5088558;28;20044;-80
2021/05/04 06:17:28;;;;;;;6.57;1.10;;;9.90;99.40;;;;;;5072853;28;20036;-80
2021/05/04 06:19:55;;;;;;;6.78;0.95;;;10.00;99.20;;;;;;5105432;28;20308;-80
2021/05/04 06:22:21;;;;;;;4.80;0.98;;;10.00;98.90;;;;;;5054898;28;20040;-81
2021/05/04 06:24:48;;;;;;;5.90;0.97;;;10.10;98.90;;;;;;5060173;28;20032;-80
2021/05/04 06:27:14;;;;;;;5.00;0.60;;;10.10;98.80;;;;;;5090686;28;20437;-80
2021/05/04 06:29:41;;;;;;;2.58;0.60;;;10.10;98.80;;;;;;5053535;28;20481;-81
2021/05/04 06:32:10;;;;;;;3.63;0.93;;;10.20;98.70;;;;;;5072098;28;20051;-79
2021/05/04 06:34:38;;;;;;;6.85;0.70;;;10.20;98.80;;;;;;5071126;28;20051;-84
2021/05/04 06:37:05;;;;;;;4.63;1.08;;;10.20;98.90;;;;;;5109090;28;20040;-83
2021/05/04 06:39:31;;;;;;;2.70;0.82;;;10.10;99.00;;;;;;5055150;28;20462;-82
2021/05/04 06:41:58;;;;;;;5.25;0.95;;;10.10;99.20;;;;;;5089725;28;20051;-81
2021/05/04 06:44:25;;;;;;;5.43;1.08;;;10.00;99.30;;;;;;5070448;28;20107;-78
2021/05/04 06:46:51;;;;;;;3.75;0.90;;;10.00;99.50;;;;;;5072040;28;20047;-81
2021/05/04 06:49:17;;;;;;;5.75;1.30;;;10.00;99.70;;;;;;5054267;28;20048;-82
2021/05/04 06:51:44;;;;;;;7.47;1.65;;;9.90;99.80;;;;;;5088575;28;20043;-80
2021/05/04 06:54:11;;;;;;;7.13;1.92;;;9.90;99.80;;;;;;5088017;28;20044;-80
2021/05/04 06:56:37;;;;;;;9.50;1.83;;;10.00;99.90;;;;;;5072767;28;20062;-81
2021/05/04 06:59:06;;;;;;;5.65;1.40;;;10.10;99.90;;;;;;5088132;28;20520;-82
2021/05/04 07:01:34;;;;;;;6.40;1.10;;;10.30;99.90;;;;;;5088850;28;20047;-83
2021/05/04 07:04:00;;;;;;;5.22;1.23;;;10.40;99.70;;;;;;5074612;28;20051;-81
2021/05/04 07:06:27;;;;;;;7.78;1.55;;;10.60;99.60;;;;;;5087010;28;20058;-80
2021/05/04 07:08:54;;;;;;;5.57;1.77;;;10.70;99.10;;;;;;5068526;28;20035;-79
2021/05/04 07:11:20;;;;;;;5.97;1.27;;;10.70;99.00;;;;;;5068064;28;20043;-78
2021/05/04 07:13:47;;;;;;;6.53;1.58;;;10.80;98.90;;;;;;5100647;28;20046;-81
2021/05/04 07:16:13;;;;;;;10.95;1.83;;;10.90;98.40;;;;;;5087121;28;20912;-82
2021/05/04 07:18:40;;;;;;;6.93;1.60;;;10.90;98.40;;;;;;5053808;28;20038;-81
2021/05/04 07:21:09;;;;;;;10.38;1.55;;;10.90;98.40;;;;;;5103784;28;20034;-81
2021/05/04 07:23:39;;;;;;;6.53;1.13;;;11.00;98.40;;;;;;5055474;28;20040;-81
2021/05/04 07:26:06;;;;;;;7.45;1.67;;;11.00;98.40;;;;;;5083929;28;20039;-82
2021/05/04 07:28:41;;;;;;;8.40;1.42;;;11.00;98.00;;;;;;5084560;28;20047;-82
2021/05/04 07:31:07;;;;;;;5.97;1.20;;;11.00;98.00;;;;;;5096950;28;20047;-82
2021/05/04 07:33:34;;;;;;;8.55;1.77;;;11.10;98.10;;;;;;5068584;28;20407;-80
2021/05/04 07:36:01;;;;;;;8.35;1.80;;;11.10;97.90;;;;;;5102901;28;20031;-80
2021/05/04 07:38:27;;;;;;;5.65;1.45;;;11.10;97.90;;;;;;5086871;28;20043;-78
2021/05/04 07:40:54;;;;;;;6.88;1.13;;;11.00;97.70;;;;;;5082121;28;20491;-78
2021/05/04 07:43:22;;;;;;;6.75;1.73;;;11.00;97.60;;;;;;5085452;28;20480;-77
2021/05/04 07:45:49;;;;;;;6.47;1.40;;;11.10;97.60;;;;;;5085198;28;20498;-84
2021/05/04 07:48:17;;;;;;;8.13;1.67;;;11.10;97.60;;;;;;5099523;28;20039;-80
2021/05/04 07:50:44;;;;;;;7.45;1.20;;;11.00;97.60;;;;;;5075811;28;20036;-80
2021/05/04 07:53:10;;;;;;;7.88;1.33;;;11.10;97.80;;;;;;5086436;28;20054;-80
2021/05/04 07:55:37;;;;;;;5.15;1.08;;;11.20;97.70;;;;;;5085995;28;20038;-80
2021/05/04 07:58:03;;;;;;;9.30;1.50;;;11.20;97.10;;;;;;5070412;28;20811;-82
2021/05/04 08:00:30;;;;;;;6.40;0.90;;;11.30;97.20;;;;;;5103165;28;20502;-80
2021/05/04 08:02:56;;;;;;;5.65;1.00;;;11.20;96.80;;;;;;5105985;28;20044;-80
2021/05/04 08:05:23;;;;;;;4.47;1.08;;;11.00;96.70;;;;;;5105311;28;20043;-80
2021/05/04 08:07:49;;;;;;;9.98;1.25;;;10.70;97.30;;;;;;5071528;28;20035;-81
2021/05/04 08:10:16;;;;;;;7.30;0.98;;;10.50;97.90;;;;;;5102904;28;20050;-80
2021/05/04 08:12:42;;;;;;;5.40;0.90;;;10.20;98.40;;;;;;5086358;28;20040;-80
2021/05/04 08:15:16;;;;;;;4.80;0.80;;;9.90;99.00;;;;;;5073836;28;20047;-80
2021/05/04 08:17:46;;;;;;;5.28;0.70;;;9.70;99.40;;;;;;5088121;28;20371;-80
2021/05/04 08:20:13;;;;;;;5.00;0.90;;;9.50;99.70;;;;;;5083117;28;20503;-79
2021/05/04 08:22:40;;;;;;;4.88;1.10;;;9.40;99.90;;;;;;5087514;28;20042;-79
2021/05/04 08:25:07;;;;;;;6.18;2.03;;;9.30;99.90;;;;;;5087390;28;20051;-80
2021/05/04 08:27:34;;;;;;;10.63;2.47;;;9.30;99.90;;;;;;5103846;28;20047;-80
2021/05/04 08:30:00;;;;;;;6.70;2.92;;;9.40;99.90;;;;;;5085297;28;20067;-80
2021/05/04 08:32:26;;;;;;;7.40;2.92;;;9.60;99.90;;;;;;5068179;28;20060;-81
2021/05/04 08:34:53;;;;;;;9.75;2.63;;;9.70;99.90;;;;;;5087835;28;20039;-80
2021/05/04 08:37:20;;;;;;;8.98;3.58;;;9.90;99.90;;;;;;5104895;28;20054;-80
2021/05/04 08:39:46;;;;;;;15.15;3.92;;;10.10;99.90;;;;;;5087932;28;20048;-80
2021/05/04 08:42:12;;;;;;;15.52;3.13;;;10.20;99.90;;;;;;5071502;28;20046;-80
2021/05/04 08:44:42;;;;;;;10.27;3.38;;;10.20;99.90;;;;;;5087984;28;20036;-80
2021/05/04 08:47:09;;;;;;;11.15;2.80;;;10.30;99.90;;;;;;5102336;28;20036;-80
2021/05/04 08:49:38;;;;;;;14.23;3.20;;;10.40;99.90;;;;;;5068926;28;20662;-80
2021/05/04 08:52:04;;;;;;;13.80;3.10;;;10.50;99.90;;;;;;5103882;28;20035;-80
2021/05/04 08:54:31;;;;;;;14.65;2.42;;;10.60;99.90;;;;;;5104607;28;20047;-77
2021/05/04 08:56:57;;;;;;;11.18;2.83;;;10.60;99.90;;;;;;5104270;28;20070;-82
2021/05/04 08:59:24;;;;;;;13.63;3.05;;;10.50;99.90;;;;;;5097675;28;20480;-81
2021/05/04 09:01:50;;;;;;;12.48;3.50;;;10.50;99.90;;;;;;5071336;28;20047;-82
2021/05/04 09:04:56;;;;;;;15.10;3.70;;;10.50;99.90;;;;;;5051430;28;20044;-79
2021/05/04 09:07:31;;;;;;;14.32;3.03;;;10.50;99.90;;;;;;5088975;28;20506;-82
2021/05/04 09:10:35;;;;;;;14.52;3.42;;;10.50;99.90;;;;;;5100084;28;20494;-82
2021/05/04 09:13:09;;;;;;;15.27;3.90;;;10.40;99.90;;;;;;5086106;28;20031;-81
2021/05/04 09:21:26;;;;;;;11.05;3.97;;;10.70;99.90;;;;;;5104269;28;20518;-81
2021/05/04 09:23:52;;;;;;;13.05;4.30;;;11.00;99.90;;;;;;5106907;28;20066;-83
2021/05/04 09:26:21;;;;;;;10.30;2.60;;;11.40;99.90;;;;;;5092001;28;20036;-83
2021/05/04 09:28:53;;;;;;;12.13;2.80;;;11.60;99.90;;;;;;5107496;28;20565;-82
2021/05/04 09:31:29;;;;;;;15.10;2.97;;;11.60;99.90;;;;;;5106962;28;20035;-83
2021/05/04 09:34:07;;;;;;;11.80;3.17;;;11.50;99.90;;;;;;5107279;28;20046;-83
2021/05/04 09:36:48;;;;;;;9.45;2.67;;;11.50;99.90;;;;;;5106920;28;20038;-81
2021/05/04 09:39:36;;;;;;;10.55;2.72;;;11.60;99.90;;;;;;5101047;28;20482;-81
2021/05/04 09:42:11;;;;;;;15.00;2.28;;;11.60;99.90;;;;;;5103316;28;20040;-82
2021/05/04 09:44:48;;;;;;;9.27;2.45;;;11.80;99.90;;;;;;5083864;28;20036;-80
2021/05/04 09:47:25;;;;;;;9.02;1.60;;;12.00;99.90;;;;;;5087812;28;20036;-83
2021/05/04 09:49:56;;;;;;;12.77;1.65;;;12.10;99.50;;;;;;5087084;28;20031;-81
2021/05/04 09:52:43;;;;;;;9.75;1.80;;;12.00;98.30;;;;;;5083218;28;20402;-82
2021/05/04 09:55:12;;;;;;;9.45;2.00;;;11.80;97.90;;;;;;5089138;28;20065;-83
2021/05/04 09:57:42;;;;;;;12.00;2.10;;;11.50;98.20;;;;;;5105520;28;20052;-82
2021/05/04 10:00:13;;;;;;;12.13;2.45;;;11.20;99.00;;;;;;5102826;28;20040;-82
2021/05/04 10:02:40;;;;;;;10.45;2.30;;;10.90;99.40;;;;;;5102618;28;20047;-81
2021/05/04 10:05:10;;;;;;;11.60;2.28;;;10.70;99.90;;;;;;5100444;28;20055;-80
2021/05/04 10:07:37;;;;;;;12.27;2.33;;;10.50;99.90;;;;;;5107663;28;20421;-82
2021/05/04 10:10:05;;;;;;;13.32;2.10;;;10.60;99.90;;;;;;5100514;28;21314;-81
2021/05/04 10:12:33;;;;;;;12.10;2.53;;;10.60;99.90;;;;;;5103597;28;20486;-82
2021/05/04 10:15:08;;;;;;;8.90;2.03;;;10.60;99.90;;;;;;5088888;28;20063;-85
2021/05/04 10:17:37;;;;;;;16.15;3.03;;;10.60;99.90;;;;;;5102639;28;20039;-80
2021/05/04 10:20:17;;;;;;;12.55;2.10;;;10.50;99.90;;;;;;5102338;28;20031;-80
2021/05/04 10:22:44;;;;;;;9.85;2.17;;;10.50;99.90;;;;;;5104044;28;20062;-86
2021/05/04 10:25:19;;;;;;;9.18;1.92;;;10.50;99.90;;;;;;5086185;28;20142;-82
2021/05/04 10:27:50;;;;;;;9.88;1.20;;;10.50;99.90;;;;;;5106043;28;20486;-81
2021/05/04 10:30:19;;;;;;;10.48;1.30;;;10.50;99.90;;;;;;5086100;28;20391;-81
2021/05/04 10:32:53;;;;;;;8.60;1.50;;;10.40;99.90;;;;;;5097201;28;20032;-79
2021/05/04 10:35:29;;;;;;;9.13;0.90;;;10.40;99.90;;;;;;5097768;28;20375;-85
2021/05/04 10:37:58;;;;;;;7.72;0.77;;;10.60;99.90;;;;;;5075088;28;20040;-84
2021/05/04 10:40:30;;;;;;;7.72;1.27;;;10.90;99.90;;;;;;5088098;28;20044;-84
2021/05/04 10:43:02;;;;;;;7.13;0.77;;;11.30;99.90;;;;;;5089458;28;20040;-83
2021/05/04 10:45:40;;;;;;;4.30;0.70;;;11.90;99.90;;;;;;5076604;28;20813;-87
2021/05/04 10:48:08;;;;;;;6.32;0.60;;;12.30;99.80;;;;;;5080554;28;20028;-85
2021/05/04 10:50:51;;;;;;;9.10;0.80;;;12.40;98.00;;;;;;5082441;28;20040;-85
2021/05/04 10:53:19;;;;;;;5.82;0.63;;;12.30;97.40;;;;;;5104909;28;20402;-82
2021/05/04 10:55:52;;;;;;;8.95;0.77;;;12.00;96.40;;;;;;5101017;28;20463;-78
2021/05/04 10:58:30;;;;;;;4.03;0.60;;;11.70;96.30;;;;;;5097200;28;20055;-81
2021/05/04 11:01:02;;;;;;;7.97;0.80;;;11.50;95.50;;;;;;5080778;28;20514;-82
2021/05/04 11:03:29;;;;;;;4.57;0.82;;;11.30;95.00;;;;;;5099623;28;20032;-82
2021/05/04 11:06:04;;;;;;;7.10;0.70;;;11.20;94.70;;;;;;5080247;28;20080;-83
2021/05/04 11:08:42;;;;;;;4.22;0.52;;;11.00;95.10;;;;;;5084776;28;20512;-82
2021/05/04 11:11:18;;;;;;;6.82;0.50;;;10.80;95.50;;;;;;5102277;28;20143;-82
2021/05/04 11:13:57;;;;;;;7.07;0.60;;;11.20;97.20;;;;;;5082932;28;20040;-85
2021/05/04 11:16:45;;;;;;;3.08;0.40;;;11.70;97.00;;;;;;5082439;28;20502;-85
2021/05/04 11:19:13;;;;;;;4.53;0.43;;;12.00;95.10;;;;;;5099518;28;20078;-84
2021/05/04 11:21:49;;;;;;;3.78;0.40;;;11.90;94.10;;;;;;5051265;28;20035;-85
2021/05/04 11:24:18;;;;;;;4.93;0.55;;;11.70;94.30;;;;;;5054399;28;20040;-85
2021/05/04 11:26:58;;;;;;;4.82;0.50;;;11.40;93.90;;;;;;5103283;28;20045;-83
2021/05/04 11:29:34;;;;;;;4.15;0.47;;;11.10;94.70;;;;;;5084418;28;20039;-85
2021/05/04 11:32:09;;;;;;;5.50;0.70;;;11.20;97.10;;;;;;5086908;28;20047;-82
2021/05/04 11:34:37;;;;;;;5.25;0.60;;;11.90;97.10;;;;;;5103292;28;20465;-83
2021/05/04 11:37:06;;;;;;;8.05;1.00;;;12.50;96.90;;;;;;5085713;28;20028;-82
2021/05/04 11:39:32;;;;;;;3.72;0.70;;;13.00;95.80;;;;;;5093619;28;20398;-83
2021/05/04 11:42:01;;;;;;;6.60;0.75;;;13.00;94.30;;;;;;5069980;28;20046;-83
2021/05/04 11:44:29;;;;;;;4.53;0.60;;;12.80;93.40;;;;;;5085067;28;20047;-84
2021/05/04 11:47:16;;;;;;;3.25;0.63;;;12.50;93.30;;;;;;5088924;28;20401;-88
2021/05/04 11:49:44;;;;;;;4.03;0.50;;;12.20;93.30;;;;;;5101998;28;20520;-84
2021/05/04 11:52:14;;;;;;;6.45;1.02;;;11.90;93.30;;;;;;5088929;28;20032;-83
2021/05/04 11:54:40;;;;;;;5.15;0.77;;;11.70;93.00;;;;;;5071773;28;20048;-83
2021/05/04 11:57:07;;;;;;;3.25;0.45;;;11.50;92.90;;;;;;5094553;28;20055;-83
2021/05/04 11:59:34;;;;;;;5.85;0.40;;;11.40;92.80;;;;;;5082230;28;20031;-83
2021/05/04 12:02:00;;;;;;;5.13;0.70;;;11.40;92.80;;;;;;5069642;28;20044;-83
2021/05/04 12:04:48;;;;;;;3.25;0.50;;;11.50;92.50;;;;;;5100194;28;20039;-84
2021/05/04 12:07:49;;;;;;;2.72;0.40;;;11.50;93.10;;;;;;5070513;28;20032;-86
2021/05/04 12:10:15;;;;;;;3.05;0.40;;;11.80;93.20;;;;;;5100475;28;20024;-82
2021/05/04 12:12:46;;;;;;;6.07;0.60;;;12.30;90.90;;;;;;5099745;28;20040;-84
2021/05/04 12:15:17;;;;;;;4.85;0.40;;;12.70;90.00;;;;;;5101638;28;20040;-83
2021/05/04 12:17:55;;;;;;;2.85;0.70;;;13.10;88.20;;;;;;5083852;28;20038;-83
2021/05/04 12:20:23;;;;;;;4.80;0.80;;;13.20;85.80;;;;;;5082553;28;20126;-82
2021/05/04 12:22:52;;;;;;;7.28;0.40;;;12.90;84.40;;;;;;5096727;28;20549;-83
2021/05/04 12:25:24;;;;;;;3.60;0.35;;;12.50;84.60;;;;;;5100353;28;20047;-83
2021/05/04 12:27:50;;;;;;;1.80;0.30;;;12.10;87.00;;;;;;5099027;28;20047;-83
2021/05/04 12:30:25;;;;;;;5.72;0.40;;;12.00;88.40;;;;;;5081875;28;20494;-79
2021/05/04 12:32:52;;;;;;;4.53;0.50;;;11.90;87.70;;;;;;5067318;28;20599;-80
2021/05/04 12:35:37;;;;;;;5.82;0.50;;;11.80;88.20;;;;;;5082157;28;20649;-80
2021/05/04 12:38:21;;;;;;;2.95;0.20;;;11.70;87.50;;;;;;5068129;28;20039;-80
2021/05/04 12:41:19;;;;;;;5.95;0.88;;;11.70;88.00;;;;;;5099536;28;20371;-80
2021/05/04 12:44:03;;;;;;;5.07;0.52;;;11.80;88.20;;;;;;5084338;28;20391;-79
2021/05/04 12:46:32;;;;;;;1.95;0.40;;;11.80;87.10;;;;;;5098582;28;20031;-80
2021/05/04 12:49:03;;;;;;;3.85;0.60;;;11.60;87.60;;;;;;5099605;28;20036;-84
2021/05/04 12:51:31;;;;;;;1.90;0.30;;;11.40;89.70;;;;;;5101753;28;20040;-83
2021/05/04 12:54:13;;;;;;;2.35;0.32;;;11.20;90.70;;;;;;5070590;28;20039;-83
2021/05/04 12:56:39;;;;;;;4.40;0.55;;;11.20;90.90;;;;;;5103225;28;20054;-83
2021/05/04 12:59:09;;;;;;;3.53;0.30;;;11.50;90.90;;;;;;5055025;28;20032;-85
2021/05/04 13:01:48;;;;;;;3.33;0.40;;;11.70;90.20;;;;;;5089237;28;20023;-86
2021/05/04 13:04:43;;;;;;;3.65;0.57;;;11.90;90.10;;;;;;5085240;28;20047;-85
2021/05/04 13:32:05;;;;;;;4.00;0.60;;;11.00;92.80;;;;;;5054820;28;20038;-79